createdAt,value
2019-04-25T00:00:44.601Z,"   7.83"
2019-04-25T00:01:44.766Z,"   7.79"
2019-04-25T00:02:44.783Z,"   7.79"
2019-04-25T00:03:44.769Z,"   7.80"
2019-04-25T00:04:45.006Z,"   7.77"
2019-04-25T00:05:44.761Z,"   7.77"
2019-04-25T00:06:44.975Z,"   7.79"
2019-04-25T00:07:44.958Z,"   7.80"
2019-04-25T00:08:45.235Z,"   7.77"
2019-04-25T00:09:45.246Z,"   7.78"
2019-04-25T00:10:45.373Z,"   7.78"
2019-04-25T00:11:46.559Z,"   7.78"
2019-04-25T00:12:44.647Z,"   7.81"
2019-04-25T00:13:44.626Z,"   7.78"
2019-04-25T00:14:44.585Z,"   7.77"
2019-04-25T00:15:45.961Z,"   7.73"
2019-04-25T00:16:45.193Z,"   7.80"
2019-04-25T00:17:44.613Z,"   7.76"
2019-04-25T00:18:44.589Z,"   7.78"
2019-04-25T00:19:44.597Z,"   7.76"
2019-04-25T00:20:44.822Z,"   7.76"
2019-04-25T00:21:44.607Z,"   7.76"
2019-04-25T00:22:44.864Z,"   7.78"
2019-04-25T00:23:44.980Z,"   7.76"
2019-04-25T00:24:45.133Z,"   7.73"
2019-04-25T00:25:45.905Z,"   7.72"
2019-04-25T00:26:45.170Z,"   7.74"
2019-04-25T00:27:45.989Z,"   7.77"
2019-04-25T00:28:45.422Z,"   7.77"
2019-04-25T00:29:45.738Z,"   7.78"
2019-04-25T00:30:44.685Z,"   7.76"
2019-04-25T00:31:45.096Z,"   7.76"
2019-04-25T00:32:45.341Z,"   7.77"
2019-04-25T00:33:45.311Z,"   7.75"
2019-04-25T00:34:45.576Z,"   7.77"
2019-04-25T00:35:45.730Z,"   7.78"
2019-04-25T00:36:45.615Z,"   7.77"
2019-04-25T00:37:45.487Z,"   7.75"
2019-04-25T00:38:46.594Z,"   7.79"
2019-04-25T00:39:45.323Z,"   7.77"
2019-04-25T00:40:44.860Z,"   7.77"
2019-04-25T00:41:45.491Z,"   7.76"
2019-04-25T00:42:44.886Z,"   7.75"
2019-04-25T00:43:45.293Z,"   7.73"
2019-04-25T00:44:45.040Z,"   7.72"
2019-04-25T00:45:45.666Z,"   7.69"
2019-04-25T00:46:46.390Z,"   7.74"
2019-04-25T00:47:44.755Z,"   7.75"
2019-04-25T00:48:44.566Z,"   7.73"
2019-04-25T00:49:45.159Z,"   7.76"
2019-04-25T00:50:44.625Z,"   7.74"
2019-04-25T00:51:44.564Z,"   7.72"
2019-04-25T00:52:44.836Z,"   7.73"
2019-04-25T00:53:44.675Z,"   7.72"
2019-04-25T00:54:44.525Z,"   7.71"
2019-04-25T00:55:44.671Z,"   7.72"
2019-04-25T00:56:46.067Z,"   7.69"
2019-04-25T00:57:44.811Z,"   7.73"
2019-04-25T00:58:45.253Z,"   7.68"
2019-04-25T00:59:45.463Z,"   7.70"
2019-04-25T01:00:44.905Z,"   7.67"
2019-04-25T01:01:46.517Z,"   7.67"
2019-04-25T01:02:45.291Z,"   7.67"
2019-04-25T01:03:45.297Z,"   7.62"
2019-04-25T01:04:45.183Z,"   7.64"
2019-04-25T01:05:45.519Z,"   7.63"
2019-04-25T01:06:45.323Z,"   7.65"
2019-04-25T01:07:44.534Z,"   7.65"
2019-04-25T01:08:44.513Z,"   7.70"
2019-04-25T01:09:44.569Z,"   7.62"
2019-04-25T01:10:44.546Z,"   7.66"
2019-04-25T01:11:44.545Z,"   7.67"
2019-04-25T01:12:44.678Z,"   7.65"
2019-04-25T01:13:44.664Z,"   7.67"
2019-04-25T01:14:45.714Z,"   7.61"
2019-04-25T01:15:44.952Z,"   7.64"
2019-04-25T01:16:45.069Z,"   7.62"
2019-04-25T01:17:45.396Z,"   7.62"
2019-04-25T01:18:45.303Z,"   7.60"
2019-04-25T01:19:45.719Z,"   7.61"
2019-04-25T01:20:45.373Z,"   7.61"
2019-04-25T01:21:45.516Z,"   7.63"
2019-04-25T01:22:45.682Z,"   7.63"
2019-04-25T01:23:45.716Z,"   7.62"
2019-04-25T01:24:45.597Z,"   7.61"
2019-04-25T01:25:45.774Z,"   7.59"
2019-04-25T01:26:45.866Z,"   7.58"
2019-04-25T01:27:44.538Z,"   7.61"
2019-04-25T01:28:44.528Z,"   7.56"
2019-04-25T01:29:44.577Z,"   7.61"
2019-04-25T01:30:44.530Z,"   7.58"
2019-04-25T01:31:44.618Z,"   7.57"
2019-04-25T01:32:44.887Z,"   7.57"
2019-04-25T01:33:44.489Z,"   7.57"
2019-04-25T01:34:44.481Z,"   7.60"
2019-04-25T01:35:44.867Z,"   7.58"
2019-04-25T01:36:44.567Z,"   7.57"
2019-04-25T01:37:44.526Z,"   7.54"
2019-04-25T01:38:44.867Z,"   7.57"
2019-04-25T01:39:44.503Z,"   7.55"
2019-04-25T01:40:44.493Z,"   7.55"
2019-04-25T01:41:44.553Z,"   7.53"
2019-04-25T01:42:44.488Z,"   7.51"
2019-04-25T01:43:44.517Z,"   7.50"
2019-04-25T01:44:44.546Z,"   7.49"
2019-04-25T01:45:44.468Z,"   7.51"
2019-04-25T01:46:44.463Z,"   7.50"
2019-04-25T01:47:48.876Z,"   7.49"
2019-04-25T01:48:44.480Z,"   7.49"
2019-04-25T01:49:44.485Z,"   7.48"
2019-04-25T01:50:44.505Z,"   7.50"
2019-04-25T01:51:44.473Z,"   7.44"
2019-04-25T01:52:44.515Z,"   7.45"
2019-04-25T01:53:44.481Z,"   7.48"
2019-04-25T01:54:44.475Z,"   7.45"
2019-04-25T01:55:53.827Z,"   7.43"
2019-04-25T01:56:44.561Z,"   7.45"
2019-04-25T01:57:45.347Z,"   7.45"
2019-04-25T01:58:44.462Z,"   7.45"
2019-04-25T01:59:44.497Z,"   7.41"
2019-04-25T02:00:44.995Z,"   7.41"
2019-04-25T02:01:44.527Z,"   7.40"
2019-04-25T02:02:44.506Z,"   7.40"
2019-04-25T02:03:44.449Z,"   7.41"
2019-04-25T02:04:44.476Z,"   7.41"
2019-04-25T02:05:44.526Z,"   7.43"
2019-04-25T02:06:44.554Z,"   7.41"
2019-04-25T02:07:44.511Z,"   7.39"
2019-04-25T02:08:44.473Z,"   7.40"
2019-04-25T02:09:44.472Z,"   7.41"
2019-04-25T02:10:44.498Z,"   7.40"
2019-04-25T02:11:44.493Z,"   7.41"
2019-04-25T02:12:44.540Z,"   7.40"
2019-04-25T02:13:44.453Z,"   7.39"
2019-04-25T02:14:44.499Z,"   7.37"
2019-04-25T02:15:44.526Z,"   7.40"
2019-04-25T02:16:44.497Z,"   7.41"
2019-04-25T02:17:44.491Z,"   7.39"
2019-04-25T02:18:44.459Z,"   7.39"
2019-04-25T02:19:44.474Z,"   7.42"
2019-04-25T02:20:44.502Z,"   7.41"
2019-04-25T02:21:44.990Z,"   7.43"
2019-04-25T02:22:44.454Z,"   7.40"
2019-04-25T02:23:44.426Z,"   7.43"
2019-04-25T02:24:44.433Z,"   7.41"
2019-04-25T02:25:44.437Z,"   7.42"
2019-04-25T02:26:44.428Z,"   7.42"
2019-04-25T02:27:44.435Z,"   7.41"
2019-04-25T02:28:44.439Z,"   7.40"
2019-04-25T02:29:44.777Z,"   7.40"
2019-04-25T02:30:45.372Z,"   7.39"
2019-04-25T02:31:45.172Z,"   7.38"
2019-04-25T02:32:44.447Z,"   7.41"
2019-04-25T02:33:44.515Z,"   7.41"
2019-04-25T02:34:45.946Z,"   7.40"
2019-04-25T02:35:46.766Z,"   7.41"
2019-04-25T02:36:46.988Z,"   7.42"
2019-04-25T02:37:45.118Z,"   7.44"
2019-04-25T02:38:44.425Z,"   7.44"
2019-04-25T02:39:44.903Z,"   7.44"
2019-04-25T02:40:45.416Z,"   7.41"
2019-04-25T02:41:44.637Z,"   7.39"
2019-04-25T02:42:44.681Z,"   7.40"
2019-04-25T02:43:45.198Z,"   7.41"
2019-04-25T02:44:44.589Z,"   7.41"
2019-04-25T02:45:44.419Z,"   7.40"
2019-04-25T02:46:44.970Z,"   7.40"
2019-04-25T02:47:46.291Z,"   7.40"
2019-04-25T02:48:44.423Z,"   7.40"
2019-04-25T02:49:44.759Z,"   7.37"
2019-04-25T02:50:46.228Z,"   7.40"
2019-04-25T02:51:45.088Z,"   7.39"
2019-04-25T02:52:44.542Z,"   7.39"
2019-04-25T02:53:44.768Z,"   7.40"
2019-04-25T02:54:44.923Z,"   7.39"
2019-04-25T02:55:44.756Z,"   7.38"
2019-04-25T02:56:46.670Z,"   7.41"
2019-04-25T02:57:44.962Z,"   7.40"
2019-04-25T02:58:44.454Z,"   7.39"
2019-04-25T02:59:45.077Z,"   7.38"
2019-04-25T03:00:54.972Z,"   7.35"
2019-04-25T03:01:44.612Z,"   7.38"
2019-04-25T03:02:44.633Z,"   7.36"
2019-04-25T03:03:44.947Z,"   7.34"
2019-04-25T03:04:44.779Z,"   7.38"
2019-04-25T03:05:47.186Z,"   7.35"
2019-04-25T03:06:45.273Z,"   7.38"
2019-04-25T03:07:44.675Z,"   7.37"
2019-04-25T03:08:45.029Z,"   7.37"
2019-04-25T03:09:45.113Z,"   7.37"
2019-04-25T03:10:44.526Z,"   7.35"
2019-04-25T03:11:45.038Z,"   7.38"
2019-04-25T03:12:44.717Z,"   7.40"
2019-04-25T03:13:44.419Z,"   7.38"
2019-04-25T03:14:44.719Z,"   7.34"
2019-04-25T03:15:44.459Z,"   7.37"
2019-04-25T03:16:44.987Z,"   7.38"
2019-04-25T03:17:44.602Z,"   7.35"
2019-04-25T03:18:44.424Z,"   7.40"
2019-04-25T03:19:44.375Z,"   7.36"
2019-04-25T03:20:45.207Z,"   7.39"
2019-04-25T03:21:45.191Z,"   7.37"
2019-04-25T03:22:44.611Z,"   7.38"
2019-04-25T03:23:46.370Z,"   7.38"
2019-04-25T03:24:45.852Z,"   7.38"
2019-04-25T03:25:44.378Z,"   7.37"
2019-04-25T03:26:44.416Z,"   7.35"
2019-04-25T03:27:44.341Z,"   7.38"
2019-04-25T03:28:44.354Z,"   7.37"
2019-04-25T03:29:45.743Z,"   7.36"
2019-04-25T03:30:45.022Z,"   7.36"
2019-04-25T03:31:45.135Z,"   7.33"
2019-04-25T03:32:45.006Z,"   7.33"
2019-04-25T03:33:45.970Z,"   7.32"
2019-04-25T03:34:44.318Z,"   7.36"
2019-04-25T03:35:44.321Z,"   7.37"
2019-04-25T03:36:44.389Z,"   7.35"
2019-04-25T03:37:44.357Z,"   7.35"
2019-04-25T03:38:44.351Z,"   7.34"
2019-04-25T03:39:44.353Z,"   7.33"
2019-04-25T03:40:44.335Z,"   7.35"
2019-04-25T03:41:45.553Z,"   7.34"
2019-04-25T03:42:44.368Z,"   7.34"
2019-04-25T03:43:44.340Z,"   7.33"
2019-04-25T03:44:44.305Z,"   7.31"
2019-04-25T03:45:45.311Z,"   7.36"
2019-04-25T03:46:44.355Z,"   7.30"
2019-04-25T03:47:46.209Z,"   7.30"
2019-04-25T03:48:44.642Z,"   7.32"
2019-04-25T03:49:44.305Z,"   7.30"
2019-04-25T03:50:44.399Z,"   7.34"
2019-04-25T03:51:44.373Z,"   7.33"
2019-04-25T03:52:44.348Z,"   7.30"
2019-04-25T03:53:44.356Z,"   7.36"
2019-04-25T03:54:44.330Z,"   7.32"
2019-04-25T03:55:44.453Z,"   7.32"
2019-04-25T03:56:53.287Z,"   7.29"
2019-04-25T03:57:44.447Z,"   7.31"
2019-04-25T03:58:44.390Z,"   7.29"
2019-04-25T03:59:44.333Z,"   7.29"
2019-04-25T04:00:44.796Z,"   7.30"
2019-04-25T04:01:44.297Z,"   7.29"
2019-04-25T04:02:44.474Z,"   7.28"
2019-04-25T04:03:44.296Z,"   7.25"
2019-04-25T04:04:44.361Z,"   7.24"
2019-04-25T04:05:44.302Z,"   7.27"
2019-04-25T04:06:44.270Z,"   7.27"
2019-04-25T04:07:44.374Z,"   7.26"
2019-04-25T04:08:44.423Z,"   7.24"
2019-04-25T04:09:44.526Z,"   7.23"
2019-04-25T04:10:44.281Z,"   7.21"
2019-04-25T04:11:44.272Z,"   7.20"
2019-04-25T04:12:44.432Z,"   7.20"
2019-04-25T04:13:44.300Z,"   7.23"
2019-04-25T04:14:44.299Z,"   7.24"
2019-04-25T04:15:44.265Z,"   7.24"
2019-04-25T04:16:44.432Z,"   7.21"
2019-04-25T04:17:44.295Z,"   7.17"
2019-04-25T04:18:44.340Z,"   7.19"
2019-04-25T04:19:45.236Z,"   7.19"
2019-04-25T04:20:44.335Z,"   7.21"
2019-04-25T04:21:44.327Z,"   7.21"
2019-04-25T04:22:44.270Z,"   7.21"
2019-04-25T04:23:44.318Z,"   7.21"
2019-04-25T04:24:44.358Z,"   7.19"
2019-04-25T04:25:44.258Z,"   7.20"
2019-04-25T04:26:44.274Z,"   7.18"
2019-04-25T04:27:44.382Z,"   7.21"
2019-04-25T04:28:44.281Z,"   7.17"
2019-04-25T04:29:44.265Z,"   7.17"
2019-04-25T04:30:45.388Z,"   7.18"
2019-04-25T04:31:44.294Z,"   7.20"
2019-04-25T04:32:44.282Z,"   7.14"
2019-04-25T04:33:44.289Z,"   7.16"
2019-04-25T04:34:45.492Z,"   7.16"
2019-04-25T04:35:44.269Z,"   7.18"
2019-04-25T04:36:46.469Z,"   7.18"
2019-04-25T04:37:44.249Z,"   7.15"
2019-04-25T04:38:44.347Z,"   7.16"
2019-04-25T04:39:44.243Z,"   7.15"
2019-04-25T04:40:44.331Z,"   7.12"
2019-04-25T04:41:44.323Z,"   7.13"
2019-04-25T04:42:44.278Z,"   7.15"
2019-04-25T04:43:44.315Z,"   7.16"
2019-04-25T04:44:44.289Z,"   7.17"
2019-04-25T04:45:45.569Z,"   7.16"
2019-04-25T04:46:44.271Z,"   7.13"
2019-04-25T04:47:44.221Z,"   7.17"
2019-04-25T04:48:44.255Z,"   7.15"
2019-04-25T04:49:44.262Z,"   7.18"
2019-04-25T04:50:44.247Z,"   7.16"
2019-04-25T04:51:44.466Z,"   7.15"
2019-04-25T04:52:44.974Z,"   7.16"
2019-04-25T04:53:44.342Z,"   7.17"
2019-04-25T04:54:44.265Z,"   7.17"
2019-04-25T04:55:44.322Z,"   7.17"
2019-04-25T04:56:44.302Z,"   7.16"
2019-04-25T04:57:44.881Z,"   7.17"
2019-04-25T04:58:44.257Z,"   7.17"
2019-04-25T04:59:44.308Z,"   7.17"
2019-04-25T05:00:44.477Z,"   7.16"
2019-04-25T05:01:44.952Z,"   7.16"
2019-04-25T05:02:44.293Z,"   7.15"
2019-04-25T05:03:44.380Z,"   7.18"
2019-04-25T05:04:44.218Z,"   7.17"
2019-04-25T05:05:44.272Z,"   7.18"
2019-04-25T05:06:44.239Z,"   7.21"
2019-04-25T05:07:44.237Z,"   7.19"
2019-04-25T05:08:44.225Z,"   7.18"
2019-04-25T05:09:44.348Z,"   7.23"
2019-04-25T05:10:44.274Z,"   7.22"
2019-04-25T05:11:44.322Z,"   7.21"
2019-04-25T05:12:44.222Z,"   7.20"
2019-04-25T05:13:44.469Z,"   7.21"
2019-04-25T05:14:44.482Z,"   7.17"
2019-04-25T05:15:44.660Z,"   7.17"
2019-04-25T05:16:44.226Z,"   7.16"
2019-04-25T05:17:44.221Z,"   7.20"
2019-04-25T05:18:44.226Z,"   7.22"
2019-04-25T05:19:44.224Z,"   7.18"
2019-04-25T05:20:44.186Z,"   7.21"
2019-04-25T05:21:45.609Z,"   7.18"
2019-04-25T05:22:44.592Z,"   7.21"
2019-04-25T05:23:44.621Z,"   7.21"
2019-04-25T05:24:44.182Z,"   7.20"
2019-04-25T05:25:44.280Z,"   7.19"
2019-04-25T05:26:44.292Z,"   7.20"
2019-04-25T05:27:59.072Z,"   7.23"
2019-04-25T05:28:44.517Z,"   7.24"
2019-04-25T05:29:44.210Z,"   7.28"
2019-04-25T05:30:44.170Z,"   7.27"
2019-04-25T05:31:45.612Z,"   7.25"
2019-04-25T05:32:44.264Z,"   7.22"
2019-04-25T05:33:44.191Z,"   7.22"
2019-04-25T05:34:46.127Z,"   7.16"
2019-04-25T05:35:44.402Z,"   7.20"
2019-04-25T05:36:44.215Z,"   7.17"
2019-04-25T05:37:44.233Z,"   7.20"
2019-04-25T05:38:45.187Z,"   7.19"
2019-04-25T05:39:44.149Z,"   7.21"
2019-04-25T05:40:44.200Z,"   7.20"
2019-04-25T05:41:44.278Z,"   7.19"
2019-04-25T05:42:44.362Z,"   7.18"
2019-04-25T05:43:44.177Z,"   7.16"
2019-04-25T05:44:44.210Z,"   7.17"
2019-04-25T05:45:44.194Z,"   7.19"
2019-04-25T05:46:45.311Z,"   7.19"
2019-04-25T05:47:44.327Z,"   7.19"
2019-04-25T05:48:44.162Z,"   7.18"
2019-04-25T05:49:44.170Z,"   7.18"
2019-04-25T05:50:44.162Z,"   7.21"
2019-04-25T05:51:44.193Z,"   7.20"
2019-04-25T05:52:45.978Z,"   7.20"
2019-04-25T05:53:44.191Z,"   7.21"
2019-04-25T05:54:44.344Z,"   7.23"
2019-04-25T05:55:44.217Z,"   7.22"
2019-04-25T05:56:44.570Z,"   7.23"
2019-04-25T05:57:49.726Z,"   7.22"
2019-04-25T05:58:44.157Z,"   7.24"
2019-04-25T05:59:46.535Z,"   7.22"
2019-04-25T06:00:46.957Z,"   7.20"
2019-04-25T06:01:44.158Z,"   7.23"
2019-04-25T06:02:46.124Z,"   7.21"
2019-04-25T06:03:44.183Z,"   7.25"
2019-04-25T06:04:44.186Z,"   7.25"
2019-04-25T06:05:44.135Z,"   7.26"
2019-04-25T06:06:44.650Z,"   7.29"
2019-04-25T06:07:44.217Z,"   7.32"
2019-04-25T06:08:44.212Z,"   7.33"
2019-04-25T06:09:44.445Z,"   7.34"
2019-04-25T06:10:45.236Z,"   7.40"
2019-04-25T06:11:44.198Z,"   7.35"
2019-04-25T06:12:44.195Z,"   7.32"
2019-04-25T06:13:45.029Z,"   7.38"
2019-04-25T06:14:44.119Z,"   7.35"
2019-04-25T06:15:44.187Z,"   7.33"
2019-04-25T06:16:44.250Z,"   7.34"
2019-04-25T06:17:44.473Z,"   7.31"
2019-04-25T06:18:44.373Z,"   7.35"
2019-04-25T06:19:44.119Z,"   7.38"
2019-04-25T06:20:44.336Z,"   7.38"
2019-04-25T06:21:44.126Z,"   7.43"
2019-04-25T06:22:44.293Z,"   7.47"
2019-04-25T06:23:45.967Z,"   7.42"
2019-04-25T06:24:44.478Z,"   7.44"
2019-04-25T06:25:44.160Z,"   7.44"
2019-04-25T06:26:44.134Z,"   7.43"
2019-04-25T06:27:56.311Z,"   7.40"
2019-04-25T06:28:53.760Z,"   7.46"
2019-04-25T06:29:44.121Z,"   7.45"
2019-04-25T06:30:44.354Z,"   7.42"
2019-04-25T06:31:44.186Z,"   7.46"
2019-04-25T06:32:44.378Z,"   7.46"
2019-04-25T06:33:44.199Z,"   7.56"
2019-04-25T06:34:44.425Z,"   7.53"
2019-04-25T06:35:44.257Z,"   7.54"
2019-04-25T06:36:44.126Z,"   7.59"
2019-04-25T06:37:44.097Z,"   7.53"
2019-04-25T06:38:44.394Z,"   7.57"
2019-04-25T06:39:44.323Z,"   7.57"
2019-04-25T06:40:44.147Z,"   7.62"
2019-04-25T06:41:44.227Z,"   7.61"
2019-04-25T06:42:46.540Z,"   7.62"
2019-04-25T06:43:44.343Z,"   7.59"
2019-04-25T06:44:44.085Z,"   7.61"
2019-04-25T06:45:44.258Z,"   7.63"
2019-04-25T06:46:44.197Z,"   7.60"
2019-04-25T06:47:44.328Z,"   7.62"
2019-04-25T06:48:45.539Z,"   7.63"
2019-04-25T06:49:44.106Z,"   7.63"
2019-04-25T06:50:44.137Z,"   7.63"
2019-04-25T06:51:46.084Z,"   7.65"
2019-04-25T06:52:44.051Z,"   7.68"
2019-04-25T06:53:44.119Z,"   7.69"
2019-04-25T06:54:44.079Z,"   7.72"
2019-04-25T06:55:45.019Z,"   7.66"
2019-04-25T06:56:44.079Z,"   7.73"
2019-04-25T06:57:44.175Z,"   7.71"
2019-04-25T06:58:44.195Z,"   7.71"
2019-04-25T06:59:44.068Z,"   7.70"
2019-04-25T07:00:57.596Z,"   7.75"
2019-04-25T07:01:44.231Z,"   7.75"
2019-04-25T07:02:44.278Z,"   7.71"
2019-04-25T07:03:44.249Z,"   7.72"
2019-04-25T07:04:45.699Z,"   7.74"
2019-04-25T07:05:44.112Z,"   7.79"
2019-04-25T07:06:45.480Z,"   7.86"
2019-04-25T07:07:45.428Z,"   7.76"
2019-04-25T07:08:44.778Z,"   7.80"
2019-04-25T07:09:44.115Z,"   7.85"
2019-04-25T07:10:44.598Z,"   7.88"
2019-04-25T07:11:44.208Z,"   7.85"
2019-04-25T07:12:44.404Z,"   7.91"
2019-04-25T07:13:44.035Z,"   7.86"
2019-04-25T07:14:44.113Z,"   7.94"
2019-04-25T07:15:44.065Z,"   7.91"
2019-04-25T07:16:44.086Z,"   7.87"
2019-04-25T07:17:45.696Z,"   7.88"
2019-04-25T07:18:44.091Z,"   7.96"
2019-04-25T07:19:44.201Z,"   7.92"
2019-04-25T07:20:45.308Z,"   7.89"
2019-04-25T07:21:44.430Z,"   7.88"
2019-04-25T07:22:44.133Z,"   7.91"
2019-04-25T07:23:46.303Z,"   7.88"
2019-04-25T07:24:44.108Z,"   7.96"
2019-04-25T07:25:44.070Z,"   7.89"
2019-04-25T07:26:44.270Z,"   7.89"
2019-04-25T07:27:44.792Z,"   7.89"
2019-04-25T07:28:44.102Z,"   7.93"
2019-04-25T07:29:44.079Z,"   7.92"
2019-04-25T07:30:50.225Z,"   7.94"
2019-04-25T07:31:44.308Z,"   7.89"
2019-04-25T07:32:44.061Z,"   7.88"
2019-04-25T07:33:44.089Z,"   7.91"
2019-04-25T07:34:43.993Z,"   7.90"
2019-04-25T07:35:44.022Z,"   7.92"
2019-04-25T07:36:45.541Z,"   7.96"
2019-04-25T07:37:44.222Z,"   7.90"
2019-04-25T07:38:44.798Z,"   8.05"
2019-04-25T07:39:44.277Z,"   8.00"
2019-04-25T07:40:44.055Z,"   7.98"
2019-04-25T07:41:44.223Z,"   8.03"
2019-04-25T07:42:44.011Z,"   8.00"
2019-04-25T07:43:44.015Z,"   8.02"
2019-04-25T07:44:52.014Z,"   8.03"
2019-04-25T07:45:44.084Z,"   8.09"
2019-04-25T07:46:44.031Z,"   8.08"
2019-04-25T07:47:44.232Z,"   8.13"
2019-04-25T07:48:43.998Z,"   8.10"
2019-04-25T07:49:44.029Z,"   8.13"
2019-04-25T07:50:44.035Z,"   8.18"
2019-04-25T07:51:45.364Z,"   8.10"
2019-04-25T07:52:44.360Z,"   8.13"
2019-04-25T07:53:44.011Z,"   8.15"
2019-04-25T07:54:44.094Z,"   8.15"
2019-04-25T07:55:43.957Z,"   8.12"
2019-04-25T07:56:43.998Z,"   8.15"
2019-04-25T07:57:44.361Z,"   8.24"
2019-04-25T07:58:49.260Z,"   8.30"
2019-04-25T07:59:44.058Z,"   8.39"
2019-04-25T08:00:44.072Z,"   8.25"
2019-04-25T08:01:44.001Z,"   8.23"
2019-04-25T08:02:44.065Z,"   8.27"
2019-04-25T08:03:44.026Z,"   8.32"
2019-04-25T08:04:44.331Z,"   8.29"
2019-04-25T08:05:44.070Z,"   8.29"
2019-04-25T08:06:44.650Z,"   8.29"
2019-04-25T08:07:43.975Z,"   8.36"
2019-04-25T08:08:44.049Z,"   8.33"
2019-04-25T08:09:44.344Z,"   8.38"
2019-04-25T08:10:45.354Z,"   8.32"
2019-04-25T08:11:44.037Z,"   8.38"
2019-04-25T08:12:44.124Z,"   8.27"
2019-04-25T08:13:43.950Z,"   8.29"
2019-04-25T08:14:45.805Z,"   8.32"
2019-04-25T08:15:44.022Z,"   8.41"
2019-04-25T08:16:44.293Z,"   8.38"
2019-04-25T08:17:44.185Z,"   8.39"
2019-04-25T08:18:43.967Z,"   8.36"
2019-04-25T08:19:44.319Z,"   8.40"
2019-04-25T08:20:44.018Z,"   8.38"
2019-04-25T08:21:45.109Z,"   8.44"
2019-04-25T08:22:55.821Z,"   8.47"
2019-04-25T08:23:44.007Z,"   8.39"
2019-04-25T08:24:44.102Z,"   8.43"
2019-04-25T08:25:44.202Z,"   8.58"
2019-04-25T08:26:43.980Z,"   8.45"
2019-04-25T08:27:45.061Z,"   8.43"
2019-04-25T08:28:55.025Z,"   8.49"
2019-04-25T08:29:45.540Z,"   8.49"
2019-04-25T08:30:43.982Z,"   8.45"
2019-04-25T08:31:45.213Z,"   8.36"
2019-04-25T08:32:44.120Z,"   8.40"
2019-04-25T08:33:46.598Z,"   8.37"
2019-04-25T08:34:44.721Z,"   8.46"
2019-04-25T08:36:03.040Z,"   8.47"
2019-04-25T08:36:45.594Z,"   8.44"
2019-04-25T08:37:44.175Z,"   8.50"
2019-04-25T08:38:44.731Z,"   8.53"
2019-04-25T08:39:45.106Z,"   8.32"
2019-04-25T08:40:44.166Z,"   8.48"
2019-04-25T08:41:45.580Z,"   8.46"
2019-04-25T08:42:44.835Z,"   8.49"
2019-04-25T08:43:45.494Z,"   8.51"
2019-04-25T08:44:44.892Z,"   8.51"
2019-04-25T08:45:44.273Z,"   8.50"
2019-04-25T08:46:44.620Z,"   8.53"
2019-04-25T08:47:44.006Z,"   8.57"
2019-04-25T08:48:44.404Z,"   8.64"
2019-04-25T08:49:45.728Z,"   8.60"
2019-04-25T08:50:44.483Z,"   8.42"
2019-04-25T08:51:44.515Z,"   8.53"
2019-04-25T08:52:44.280Z,"   8.56"
2019-04-25T08:53:45.041Z,"   8.60"
2019-04-25T08:54:45.727Z,"   8.55"
2019-04-25T08:55:45.579Z,"   8.55"
2019-04-25T08:56:44.126Z,"   8.62"
2019-04-25T08:57:44.525Z,"   8.55"
2019-04-25T08:58:44.582Z,"   8.58"
2019-04-25T08:59:49.394Z,"   8.58"
2019-04-25T09:00:44.700Z,"   8.50"
2019-04-25T09:02:44.808Z,"   8.50"
2019-04-25T09:03:44.350Z,"   8.60"
2019-04-25T09:04:44.601Z,"   8.60"
2019-04-25T09:05:45.882Z,"   8.48"
2019-04-25T09:06:44.287Z,"   8.50"
2019-04-25T09:07:44.510Z,"   8.51"
2019-04-25T09:08:46.360Z,"   8.46"
2019-04-25T09:09:45.115Z,"   8.49"
2019-04-25T09:10:44.879Z,"   8.59"
2019-04-25T09:11:46.895Z,"   8.65"
2019-04-25T09:12:44.302Z,"   8.51"
2019-04-25T09:13:44.971Z,"   8.54"
2019-04-25T09:14:45.077Z,"   8.53"
2019-04-25T09:15:45.572Z,"   8.67"
2019-04-25T09:16:44.870Z,"   8.67"
2019-04-25T09:17:44.501Z,"   8.51"
2019-04-25T09:18:44.355Z,"   8.55"
2019-04-25T09:19:44.436Z,"   8.36"
2019-04-25T09:20:46.489Z,"   8.32"
2019-04-25T09:21:48.117Z,"   8.39"
2019-04-25T09:22:44.591Z,"   8.48"
2019-04-25T09:23:44.843Z,"   8.35"
2019-04-25T09:24:44.432Z,"   8.38"
2019-04-25T09:25:45.959Z,"   8.36"
2019-04-25T09:26:45.296Z,"   8.29"
2019-04-25T09:27:45.530Z,"   8.18"
2019-04-25T09:28:45.423Z,"   8.28"
2019-04-25T09:29:45.234Z,"   8.35"
2019-04-25T09:30:44.859Z,"   8.26"
2019-04-25T09:31:45.140Z,"   8.36"
2019-04-25T09:32:44.579Z,"   8.31"
2019-04-25T09:33:45.534Z,"   8.32"
2019-04-25T09:34:43.861Z,"   8.35"
2019-04-25T09:35:45.710Z,"   8.39"
2019-04-25T09:36:44.973Z,"   8.19"
2019-04-25T09:37:44.946Z,"   8.44"
2019-04-25T09:38:46.978Z,"   8.24"
2019-04-25T09:39:44.358Z,"   8.27"
2019-04-25T09:40:44.529Z,"   8.41"
2019-04-25T09:41:44.756Z,"   8.24"
2019-04-25T09:42:45.073Z,"   8.22"
2019-04-25T09:43:45.602Z,"   8.29"
2019-04-25T09:44:44.209Z,"   8.34"
2019-04-25T09:45:44.863Z,"   8.38"
2019-04-25T09:46:46.519Z,"   8.35"
2019-04-25T09:47:44.836Z,"   8.41"
2019-04-25T09:48:44.605Z,"   8.48"
2019-04-25T09:49:44.844Z,"   8.54"
2019-04-25T09:50:45.109Z,"   8.31"
2019-04-25T09:51:44.591Z,"   8.47"
2019-04-25T09:52:44.368Z,"   8.33"
2019-04-25T09:53:49.604Z,"   8.40"
2019-04-25T09:54:44.892Z,"   8.36"
2019-04-25T09:55:46.819Z,"   8.32"
2019-04-25T09:56:45.107Z,"   8.30"
2019-04-25T09:57:44.607Z,"   8.38"
2019-04-25T09:58:46.999Z,"   8.39"
2019-04-25T09:59:45.057Z,"   8.48"
2019-04-25T10:00:44.841Z,"   8.30"
2019-04-25T10:01:44.820Z,"   8.40"
2019-04-25T10:02:44.575Z,"   8.37"
2019-04-25T10:03:44.506Z,"   8.64"
2019-04-25T10:04:45.225Z,"   8.44"
2019-04-25T10:05:44.699Z,"   8.43"
2019-04-25T10:06:45.003Z,"   8.46"
2019-04-25T10:07:46.216Z,"   8.63"
2019-04-25T10:08:45.379Z,"   8.54"
2019-04-25T10:09:44.732Z,"   8.51"
2019-04-25T10:10:44.640Z,"   8.62"
2019-04-25T10:11:45.065Z,"   8.38"
2019-04-25T10:12:47.445Z,"   8.42"
2019-04-25T10:13:44.785Z,"   8.18"
2019-04-25T10:14:45.240Z,"   8.26"
2019-04-25T10:15:44.738Z,"   8.21"
2019-04-25T10:16:44.485Z,"   8.39"
2019-04-25T10:17:44.993Z,"   8.51"
2019-04-25T10:18:44.625Z,"   8.50"
2019-04-25T10:19:43.803Z,"   8.35"
2019-04-25T10:20:45.217Z,"   8.21"
2019-04-25T10:21:43.887Z,"   8.12"
2019-04-25T10:22:44.583Z,"   7.93"
2019-04-25T10:23:45.382Z,"   7.91"
2019-04-25T10:24:56.505Z,"   8.07"
2019-04-25T10:25:44.177Z,"   7.90"
2019-04-25T10:26:45.119Z,"   7.94"
2019-04-25T10:27:46.461Z,"   7.86"
2019-04-25T10:28:44.162Z,"   7.89"
2019-04-25T10:29:52.756Z,"   7.93"
2019-04-25T10:30:43.757Z,"   7.96"
2019-04-25T10:31:44.331Z,"   7.94"
2019-04-25T10:32:44.274Z,"   8.00"
2019-04-25T10:33:45.570Z,"   8.03"
2019-04-25T10:34:45.145Z,"   7.82"
2019-04-25T10:35:52.059Z,"   7.99"
2019-04-25T10:36:45.293Z,"   8.00"
2019-04-25T10:37:45.321Z,"   7.81"
2019-04-25T10:38:46.274Z,"   7.74"
2019-04-25T10:39:44.715Z,"   7.73"
2019-04-25T10:40:45.156Z,"   7.90"
2019-04-25T10:41:46.097Z,"   7.79"
2019-04-25T10:42:46.500Z,"   8.00"
2019-04-25T10:43:44.017Z,"   8.11"
2019-04-25T10:44:45.782Z,"   7.99"
2019-04-25T10:45:44.775Z,"   8.18"
2019-04-25T10:46:46.868Z,"   8.26"
2019-04-25T10:47:44.291Z,"   8.35"
2019-04-25T10:48:44.051Z,"   8.29"
2019-04-25T10:49:44.967Z,"   8.39"
2019-04-25T10:50:45.204Z,"   8.44"
2019-04-25T10:51:44.667Z,"   8.35"
2019-04-25T10:52:45.518Z,"   8.27"
2019-04-25T10:53:45.627Z,"   8.00"
2019-04-25T10:54:45.250Z,"   8.11"
2019-04-25T10:55:43.753Z,"   7.95"
2019-04-25T10:56:45.692Z,"   8.03"
2019-04-25T10:57:45.507Z,"   7.89"
2019-04-25T10:58:45.685Z,"   8.18"
2019-04-25T10:59:57.914Z,"   8.06"
2019-04-25T11:00:46.109Z,"   8.04"
2019-04-25T11:01:45.057Z,"   7.97"
2019-04-25T11:02:45.296Z,"   7.99"
2019-04-25T11:03:44.545Z,"   8.02"
2019-04-25T11:04:44.577Z,"   7.87"
2019-04-25T11:05:43.775Z,"   8.01"
2019-04-25T11:06:45.366Z,"   8.01"
2019-04-25T11:07:44.485Z,"   8.01"
2019-04-25T11:08:43.746Z,"   7.95"
2019-04-25T11:09:45.200Z,"   7.98"
2019-04-25T11:10:44.452Z,"   7.90"
2019-04-25T11:11:43.742Z,"   8.17"
2019-04-25T11:12:44.319Z,"   8.03"
2019-04-25T11:13:45.280Z,"   7.90"
2019-04-25T11:14:44.307Z,"   7.79"
2019-04-25T11:15:44.873Z,"   7.74"
2019-04-25T11:16:45.293Z,"   7.87"
2019-04-25T11:17:45.836Z,"   7.61"
2019-04-25T11:18:45.028Z,"   7.59"
2019-04-25T11:19:44.556Z,"   7.65"
2019-04-25T11:20:44.605Z,"   7.52"
2019-04-25T11:21:45.637Z,"   7.51"
2019-04-25T11:22:44.837Z,"   7.69"
2019-04-25T11:23:46.951Z,"   7.48"
2019-04-25T11:24:43.848Z,"   7.57"
2019-04-25T11:25:45.252Z,"   7.53"